Flag for China

Past Weather in 38°57'11"N, 121°32'56"E, China — Yesterday and Last 2 Weeks

Currently: 48 °F. Fog. (Weather station: Dalian Airport, China). See more current weather

Past Weather in 38°57'11"N, 121°32'56"E — Graph

°F

38°57'11"N, 121°32'56"E Temperature Yesterday

Maximum temperature yesterday: 64 °F (at 11:30 am)
Minimum temperature yesterday: 41 °F (at 5:30 am)
Average temperature yesterday: 53 °F

High & Low Weather Summary for the Past Weeks

 TemperatureHumidityPressure
High72 °F (Oct 19, 12:30 pm)100% (Oct 16, 3:30 am)30.36 "Hg (Oct 16, 3:30 am)
Low36 °F (Oct 29, 2:30 am)23% (Oct 27, 2:00 pm)29.89 "Hg (Oct 21, 2:30 pm)
Average55 °F61%30.19 "Hg
* Reported Oct 15 11:00 pm — Oct 30 11:00 pm, 38°57'11"N, 121°32'56"E. Weather by CustomWeather, © 2020

Note: Actual official high and low records may vary slightly from our data, if they occured in-between our weather recording intervals... More about our weather records

38°57'11"N, 121°32'56"E Weather History for the Previous 24 Hours

Scroll right to see more
 ConditionsComfort  
Time TempWeatherWind HumidityBarometerVisibility
11:00 pm
Fri, Oct 30
46 °FFog.1 mph93%30.27 "Hg2 mi
10:30 pm48 °FFog.1 mph82%30.27 "Hg2 mi
10:00 pm48 °FFog.No wind87%30.30 "Hg2 mi
9:30 pm48 °FFog.1 mph87%30.30 "Hg2 mi
9:00 pm48 °FFog.1 mph87%30.30 "Hg2 mi
8:30 pm48 °FFog.1 mph87%30.30 "Hg2 mi
8:00 pm48 °FFog.3 mph82%30.30 "Hg2 mi
7:30 pm48 °FFog.1 mph82%30.30 "Hg2 mi
7:00 pm50 °FFog.1 mph76%30.27 "Hg2 mi
6:30 pm52 °FFog.No wind72%30.27 "Hg3 mi
6:00 pm54 °FClear.1 mph72%30.27 "Hg4 mi
5:30 pm57 °FClear.1 mph63%30.27 "Hg5 mi
5:00 pm59 °FClear.3 mph59%30.30 "Hg5 mi
4:30 pm59 °FClear.3 mph55%30.27 "Hg5 mi
4:00 pm61 °FClear.6 mph52%30.30 "Hg5 mi
3:30 pm61 °FClear.8 mph52%30.30 "Hg5 mi
3:00 pm63 °FClear.6 mph52%30.30 "Hg5 mi
2:30 pm63 °FClear.6 mph52%30.30 "Hg5 mi
2:00 pm63 °FClear.6 mph52%30.30 "Hg5 mi
1:30 pm64 °FClear.6 mph49%30.30 "Hg5 mi
1:00 pm64 °FClear.3 mph40%30.30 "Hg5 mi
12:30 pm64 °FClear.6 mph40%30.33 "Hg5 mi
12:00 pm64 °FClear.3 mph43%30.33 "Hg5 mi
11:30 am64 °FClear.3 mph34%30.33 "Hg5 mi
10:30 am61 °FClear.1 mph52%30.36 "Hg4 mi
10:00 am61 °FClear.1 mph52%30.36 "Hg4 mi
9:30 am61 °FClear.1 mph52%30.36 "Hg4 mi
8:30 am55 °FClear.1 mph67%30.36 "Hg4 mi
8:00 am52 °FClear.3 mph82%30.36 "Hg5 mi
7:30 am46 °FClear.3 mph87%30.36 "Hg5 mi
7:00 am43 °FClear.1 mph93%30.36 "Hg5 mi
6:30 am41 °FClear.1 mph93%30.33 "Hg5 mi
6:00 am41 °FClear.1 mph93%30.33 "Hg10 mi
5:30 am41 °FClear.1 mph93%30.33 "Hg10 mi
5:00 am43 °FClear.No wind93%30.33 "Hg10 mi
2:00 am43 °FClear.1 mph87%30.33 "Hg10 mi
1:30 am45 °FClear.No wind87%30.33 "Hg10 mi
1:00 am45 °FClear.1 mph87%30.33 "Hg10 mi
12:30 am46 °FClear.1 mph82%30.33 "Hg10 mi
12:00 am46 °FClear.1 mph76%30.33 "Hg10 mi
Weather by CustomWeather, © 2020

See weather overview